Time;durP1;ratioP1;P1;durP2;ratioP2;P2;SDS_P1;SDS_P2;PMS_P1;PMS_P2;Temp;Humidity;BMP_temperature;BMP_pressure;BME280_temperature;BME280_humidity;BME280_pressure;Samples;Min_cycle;Max_cycle;Signal;HPM_P1;HPM_P2
2022/01/31 00:01:22;;;;;;;33.58;11.07;;;;;;;3.84;79.99;101573.25;5057646;28;20119;-74
2022/01/31 00:03:47;;;;;;;32.88;11.18;;;;;;;3.85;80.02;101546.66;5061129;28;20024;-75
2022/01/31 00:06:12;;;;;;;25.35;10.98;;;;;;;3.86;80.06;101535.56;5058846;28;20025;-75
2022/01/31 00:08:37;;;;;;;25.40;10.32;;;;;;;3.85;80.47;101507.97;5060436;28;20029;-75
2022/01/31 00:11:03;;;;;;;27.30;10.55;;;;;;;3.85;80.34;101484.78;5061199;28;20028;-74
2022/01/31 00:13:36;;;;;;;31.42;10.32;;;;;;;3.85;80.63;101483.91;5059610;28;20060;-75
2022/01/31 00:16:02;;;;;;;32.28;9.98;;;;;;;3.84;80.91;101475.28;5061078;28;20036;-75
2022/01/31 00:18:28;;;;;;;29.80;10.27;;;;;;;3.85;80.69;101481.31;5055936;28;20304;-75
2022/01/31 00:20:53;;;;;;;37.20;11.43;;;;;;;3.87;80.48;101485.78;5056743;28;20256;-75
2022/01/31 00:23:18;;;;;;;33.65;11.07;;;;;;;3.89;80.28;101468.72;5061923;28;20204;-74
2022/01/31 00:25:44;;;;;;;36.22;10.50;;;;;;;3.90;80.64;101457.59;5050767;28;20268;-75
2022/01/31 00:28:09;;;;;;;24.92;9.80;;;;;;;3.92;80.83;101453.41;5061296;28;20017;-75
2022/01/31 00:30:35;;;;;;;25.02;9.85;;;;;;;3.94;80.75;101445.78;5056144;28;20052;-75
2022/01/31 00:33:00;;;;;;;29.23;9.40;;;;;;;3.95;81.15;101430.44;5060899;28;20009;-74
2022/01/31 00:35:26;;;;;;;30.15;9.32;;;;;;;3.95;81.36;101419.22;5059649;28;20044;-75
2022/01/31 00:37:52;;;;;;;28.15;9.55;;;;;;;3.97;81.67;101415.06;5063203;28;20024;-74
2022/01/31 00:40:17;;;;;;;27.58;9.57;;;;;;;3.97;81.96;101397.00;5061471;28;20198;-74
2022/01/31 00:42:42;;;;;;;27.90;9.35;;;;;;;3.99;81.93;101383.38;5061729;28;20259;-74
2022/01/31 00:47:34;;;;;;;30.23;9.75;;;;;;;3.98;83.17;101361.00;5060563;28;20172;-74
2022/01/31 00:50:10;;;;;;;29.38;10.48;;;;;;;3.98;83.79;101348.09;5059000;28;20016;-75
2022/01/31 00:52:37;;;;;;;25.33;10.30;;;;;;;3.97;84.57;101332.53;5058542;28;20020;-75
2022/01/31 00:55:04;;;;;;;24.55;9.00;;;;;;;3.94;85.54;101319.44;5061300;28;20043;-75
2022/01/31 00:57:30;;;;;;;32.70;9.85;;;;;;;3.93;85.67;101312.53;5058856;28;20232;-75
2022/01/31 00:59:55;;;;;;;30.88;9.35;;;;;;;3.90;86.32;101313.25;5060021;28;20021;-75
2022/01/31 01:02:22;;;;;;;33.03;9.85;;;;;;;3.90;86.66;101296.91;5057822;28;20020;-74
2022/01/31 01:04:48;;;;;;;29.98;9.68;;;;;;;3.88;87.03;101291.66;5061969;28;20025;-75
2022/01/31 01:07:14;;;;;;;28.27;9.77;;;;;;;3.87;87.37;101287.28;5052072;28;20167;-74
2022/01/31 01:09:46;;;;;;;32.25;10.35;;;;;;;3.86;87.73;101282.94;5061249;28;20021;-74
2022/01/31 01:12:13;;;;;;;33.10;9.88;;;;;;;3.85;88.29;101265.66;5062482;28;20179;-74
2022/01/31 01:14:39;;;;;;;31.98;10.15;;;;;;;3.83;88.48;101259.56;5064865;28;20032;-74
2022/01/31 01:17:05;;;;;;;30.73;10.55;;;;;;;3.85;89.11;101251.91;5055123;28;20029;-74
2022/01/31 01:19:30;;;;;;;28.27;9.98;;;;;;;3.84;89.36;101240.72;5060153;28;20051;-74
2022/01/31 01:21:55;;;;;;;29.40;10.40;;;;;;;3.83;89.82;101233.78;5065201;28;20024;-74
2022/01/31 01:24:21;;;;;;;30.92;10.13;;;;;;;3.83;90.61;101226.03;5056766;28;20048;-74
2022/01/31 01:26:47;;;;;;;27.83;9.40;;;;;;;3.81;90.76;101219.94;5064016;28;20148;-74
2022/01/31 01:29:13;;;;;;;32.22;10.18;;;;;;;3.82;91.02;101203.63;5055810;28;20021;-74
2022/01/31 01:31:39;;;;;;;27.25;9.93;;;;;;;3.82;90.84;101191.66;5058563;28;20032;-74
2022/01/31 01:34:04;;;;;;;29.45;10.05;;;;;;;3.84;91.45;101181.44;5064667;28;20145;-75
2022/01/31 01:36:31;;;;;;;52.72;11.27;;;;;;;3.86;91.11;101184.09;5063516;28;20017;-75
2022/01/31 01:38:57;;;;;;;31.55;10.35;;;;;;;3.87;91.38;101176.44;5058242;28;20063;-75
2022/01/31 01:41:22;;;;;;;33.33;9.95;;;;;;;3.88;91.10;101165.34;5064295;28;20029;-75
2022/01/31 01:43:47;;;;;;;29.73;11.27;;;;;;;3.90;91.69;101155.13;5066325;28;20080;-75
2022/01/31 01:46:12;;;;;;;34.67;10.30;;;;;;;3.90;92.01;101145.69;5055806;28;20244;-75
2022/01/31 01:48:38;;;;;;;34.03;10.80;;;;;;;3.92;92.28;101143.19;5064288;28;20044;-75
2022/01/31 01:51:04;;;;;;;33.47;10.57;;;;;;;3.93;92.19;101135.53;5063627;28;20220;-74
2022/01/31 01:53:30;;;;;;;32.13;10.85;;;;;;;3.94;92.32;101110.63;5066043;28;20025;-75
2022/01/31 01:55:55;;;;;;;32.67;11.05;;;;;;;3.95;92.83;101096.94;5065496;28;20214;-74
2022/01/31 01:58:23;;;;;;;43.17;10.98;;;;;;;3.94;92.59;101090.00;5065876;28;20302;-74
2022/01/31 02:00:51;;;;;;;27.73;11.07;;;;;;;3.94;92.63;101083.19;5058324;28;20044;-75
2022/01/31 02:03:20;;;;;;;34.15;10.13;;;;;;;3.97;93.24;101072.16;5058399;28;20021;-74
2022/01/31 02:05:47;;;;;;;29.77;9.73;;;;;;;3.99;92.80;101060.22;5065092;28;20032;-75
2022/01/31 02:08:14;;;;;;;26.48;9.55;;;;;;;4.02;93.00;101056.91;5064988;28;20021;-75
2022/01/31 02:10:41;;;;;;;30.92;9.90;;;;;;;4.04;93.13;101057.88;5055362;28;20206;-74
2022/01/31 02:13:07;;;;;;;26.17;10.27;;;;;;;4.04;93.56;101055.28;5064230;28;20059;-74
2022/01/31 02:15:33;;;;;;;25.85;9.80;;;;;;;4.06;93.33;101048.56;5065202;28;20044;-74
2022/01/31 02:17:59;;;;;;;28.42;9.63;;;;;;;4.08;93.65;101029.75;5064550;28;20037;-75
2022/01/31 02:20:24;;;;;;;24.60;9.57;;;;;;;4.08;93.77;101029.75;5063593;28;20152;-74
2022/01/31 02:22:49;;;;;;;26.67;9.45;;;;;;;4.10;93.57;101019.53;5064574;28;20013;-74
2022/01/31 02:25:15;;;;;;;31.25;9.65;;;;;;;4.11;93.90;101010.97;5057068;28;20110;-74
2022/01/31 02:27:40;;;;;;;31.63;10.45;;;;;;;4.12;94.28;101017.94;5062929;28;20017;-74
2022/01/31 02:30:09;;;;;;;23.42;9.90;;;;;;;4.12;94.70;101031.69;5063366;28;20019;-74
2022/01/31 02:32:35;;;;;;;28.75;10.32;;;;;;;4.14;95.11;101037.84;5059352;28;20017;-74
2022/01/31 02:35:00;;;;;;;26.20;10.85;;;;;;;4.15;95.14;101049.91;5060086;28;20104;-74
2022/01/31 02:37:26;;;;;;;29.27;10.80;;;;;;;4.17;95.13;101037.09;5063855;28;20088;-74
2022/01/31 02:39:51;;;;;;;26.38;10.85;;;;;;;4.19;95.39;101025.19;5064118;28;20086;-74
2022/01/31 02:42:17;;;;;;;27.45;11.18;;;;;;;4.22;95.48;101015.00;5057176;28;20147;-74
2022/01/31 02:44:44;;;;;;;28.23;10.70;;;;;;;4.25;95.67;101009.13;5062752;28;20021;-74
2022/01/31 02:47:13;;;;;;;34.33;11.70;;;;;;;4.26;95.85;101006.63;5061210;28;20033;-74
2022/01/31 02:49:53;;;;;;;29.60;11.90;;;;;;;4.28;95.73;101005.00;5063941;28;20029;-73
2022/01/31 02:52:19;;;;;;;29.90;11.52;;;;;;;4.30;95.62;100998.25;5057805;28;21048;-74
2022/01/31 02:54:45;;;;;;;25.08;11.25;;;;;;;4.34;95.95;100988.97;5058545;28;20035;-73
2022/01/31 02:57:11;;;;;;;27.23;11.40;;;;;;;4.35;95.88;100985.59;5059934;28;20036;-73
2022/01/31 02:59:36;;;;;;;22.48;10.70;;;;;;;4.38;96.12;100974.53;5064440;28;20016;-73
2022/01/31 03:02:02;;;;;;;25.05;10.38;;;;;;;4.41;95.97;100969.53;5061364;28;20171;-73
2022/01/31 03:04:27;;;;;;;25.77;11.43;;;;;;;4.43;96.39;100955.91;5064042;28;20078;-73
2022/01/31 03:06:53;;;;;;;28.25;10.95;;;;;;;4.47;95.87;100973.28;5063790;28;20025;-73
2022/01/31 03:09:19;;;;;;;28.23;10.45;;;;;;;4.51;96.36;100971.75;5064112;28;20024;-74
2022/01/31 03:11:44;;;;;;;26.75;10.23;;;;;;;4.54;96.54;100966.75;5057208;28;20091;-73
2022/01/31 03:14:09;;;;;;;25.88;10.15;;;;;;;4.60;96.31;100963.59;5064617;28;20028;-73
2022/01/31 03:16:40;;;;;;;26.63;10.68;;;;;;;4.65;96.66;100967.28;5062836;28;20029;-73
2022/01/31 03:19:06;;;;;;;25.75;9.45;;;;;;;4.66;96.65;100957.06;5063708;28;20027;-73
2022/01/31 03:21:32;;;;;;;28.85;8.68;;;;;;;4.70;96.78;100938.31;5057230;28;20044;-73
2022/01/31 03:23:57;;;;;;;28.02;8.23;;;;;;;4.74;96.89;100929.03;5061394;28;20459;-73
2022/01/31 03:26:22;;;;;;;27.73;8.93;;;;;;;4.78;96.78;100933.53;5056799;28;20111;-73
2022/01/31 03:28:49;;;;;;;27.85;8.25;;;;;;;4.81;96.49;100940.53;5057451;28;20032;-74
2022/01/31 03:31:18;;;;;;;28.40;9.48;;;;;;;4.84;96.51;100935.53;5057766;28;20036;-74
2022/01/31 03:33:47;;;;;;;28.15;7.53;;;;;;;4.87;96.31;100935.66;5062277;28;20025;-74
2022/01/31 03:36:12;;;;;;;18.95;6.53;;;;;;;4.91;95.64;100927.25;5056154;28;20052;-73
2022/01/31 03:38:40;;;;;;;22.83;6.95;;;;;;;4.93;95.74;100925.63;5062547;28;20268;-73
2022/01/31 03:41:10;;;;;;;27.30;7.07;;;;;;;4.97;95.19;100921.50;5060186;28;20212;-73
2022/01/31 03:43:36;;;;;;;31.80;6.60;;;;;;;5.01;94.99;100923.41;5062495;28;20032;-74
2022/01/31 03:46:01;;;;;;;18.85;5.78;;;;;;;5.04;94.77;100908.06;5061614;28;20088;-73
2022/01/31 03:48:28;;;;;;;22.98;6.43;;;;;;;5.08;94.33;100903.91;5064118;28;20031;-73
2022/01/31 03:50:54;;;;;;;23.83;5.28;;;;;;;5.11;94.33;100898.91;5056131;28;20010;-73
2022/01/31 03:53:20;;;;;;;17.05;4.82;;;;;;;5.14;93.83;100904.19;5063021;28;20282;-74
2022/01/31 03:55:45;;;;;;;19.10;5.28;;;;;;;5.15;93.56;100903.41;5057198;28;20025;-74
2022/01/31 03:58:10;;;;;;;25.42;5.45;;;;;;;5.17;93.93;100902.66;5056311;28;20315;-74
2022/01/31 04:00:36;;;;;;;19.23;4.65;;;;;;;5.17;93.69;100909.50;5061729;28;20031;-73
2022/01/31 04:03:01;;;;;;;21.20;5.38;;;;;;;5.19;93.16;100908.78;5060213;28;20152;-73
2022/01/31 04:05:26;;;;;;;27.85;5.30;;;;;;;5.21;92.76;100914.00;5054575;28;20028;-73
2022/01/31 04:07:51;;;;;;;19.55;4.93;;;;;;;5.25;92.67;100917.63;5061403;28;20312;-74
2022/01/31 04:10:17;;;;;;;22.40;4.95;;;;;;;5.26;92.87;100909.94;5059942;28;20094;-73
2022/01/31 04:12:42;;;;;;;24.83;4.30;;;;;;;5.26;92.58;100902.19;5060592;28;20182;-74
2022/01/31 04:15:08;;;;;;;17.60;4.07;;;;;;;5.27;92.18;100895.31;5062461;28;20058;-74
2022/01/31 04:17:33;;;;;;;20.08;4.05;;;;;;;5.28;92.00;100895.38;5062815;28;20111;-73
2022/01/31 04:19:59;;;;;;;19.80;3.63;;;;;;;5.28;91.00;100886.78;5060333;28;20275;-74
2022/01/31 04:22:27;;;;;;;18.90;3.60;;;;;;;5.31;90.62;100889.47;5063386;28;20084;-74
2022/01/31 04:24:58;;;;;;;19.35;4.32;;;;;;;5.32;90.84;100888.69;5059259;28;20149;-73
2022/01/31 04:27:27;;;;;;;18.25;3.75;;;;;;;5.33;90.23;100888.75;5060032;28;20040;-74
2022/01/31 04:29:53;;;;;;;23.20;3.92;;;;;;;5.32;89.79;100886.09;5048744;28;20033;-74
2022/01/31 04:32:18;;;;;;;19.10;3.95;;;;;;;5.32;89.80;100893.84;5060463;28;20047;-73
2022/01/31 04:34:44;;;;;;;19.95;3.28;;;;;;;5.31;89.55;100877.44;5062182;28;20036;-73
2022/01/31 04:37:10;;;;;;;19.58;3.40;;;;;;;5.33;89.49;100880.09;5058025;28;20059;-74
2022/01/31 04:39:36;;;;;;;17.40;3.50;;;;;;;5.33;88.75;100886.16;5056508;28;20017;-73
2022/01/31 04:42:02;;;;;;;17.45;3.40;;;;;;;5.35;87.65;100873.31;5061930;28;20020;-73
2022/01/31 04:44:27;;;;;;;18.30;3.30;;;;;;;5.35;88.61;100887.09;5059760;28;20022;-73
2022/01/31 04:46:54;;;;;;;19.67;3.50;;;;;;;5.35;87.66;100884.53;5055943;28;20028;-73
2022/01/31 04:49:20;;;;;;;15.38;3.10;;;;;;;5.32;88.29;100884.38;5061396;28;20325;-74
2022/01/31 04:51:45;;;;;;;17.42;3.15;;;;;;;5.32;86.83;100884.38;5057667;28;20024;-73
2022/01/31 04:54:10;;;;;;;21.45;2.85;;;;;;;5.32;87.11;100878.34;5058270;28;20036;-74
2022/01/31 04:56:38;;;;;;;15.98;2.67;;;;;;;5.31;86.61;100881.75;5060835;28;20048;-73
2022/01/31 04:59:03;;;;;;;21.05;3.45;;;;;;;5.29;86.05;100881.66;5062747;28;20050;-74
2022/01/31 05:01:29;;;;;;;18.02;3.05;;;;;;;5.31;85.44;100877.44;5055270;28;20243;-74
2022/01/31 05:03:55;;;;;;;17.42;2.80;;;;;;;5.31;85.96;100873.97;5061132;28;20167;-74
2022/01/31 05:06:27;;;;;;;19.52;2.97;;;;;;;5.31;85.05;100874.84;5056458;28;20040;-74
2022/01/31 05:08:52;;;;;;;15.07;3.00;;;;;;;5.30;84.55;100870.53;5053810;28;20021;-74
2022/01/31 05:11:18;;;;;;;27.88;3.67;;;;;;;5.32;84.75;100866.31;5054059;28;20056;-74
2022/01/31 05:13:45;;;;;;;17.90;3.38;;;;;;;5.34;84.33;100863.78;5060249;28;20023;-74
2022/01/31 05:16:12;;;;;;;17.20;3.08;;;;;;;5.33;84.15;100859.41;5058282;28;20047;-74
2022/01/31 05:18:38;;;;;;;22.55;3.80;;;;;;;5.33;83.23;100850.00;5059048;28;20067;-74
2022/01/31 05:21:05;;;;;;;19.60;3.72;;;;;;;5.32;83.29;100857.69;5062296;28;20035;-74
2022/01/31 05:23:31;;;;;;;22.35;3.10;;;;;;;5.32;83.68;100842.19;5048008;28;20010;-74
2022/01/31 05:25:56;;;;;;;16.75;2.75;;;;;;;5.32;83.36;100848.22;5057078;28;20128;-74
2022/01/31 05:28:21;;;;;;;24.35;3.40;;;;;;;5.32;83.24;100837.00;5058010;28;20071;-73
2022/01/31 05:30:46;;;;;;;18.55;2.90;;;;;;;5.32;82.69;100844.75;5062040;28;20013;-74
2022/01/31 05:33:12;;;;;;;19.02;3.00;;;;;;;5.33;83.19;100839.66;5057926;28;20013;-74
2022/01/31 05:35:37;;;;;;;16.73;3.20;;;;;;;5.33;82.84;100831.91;5054331;28;20140;-74
2022/01/31 05:38:03;;;;;;;20.00;2.92;;;;;;;5.34;83.60;100833.66;5061574;28;20235;-74
2022/01/31 05:40:28;;;;;;;17.13;2.92;;;;;;;5.32;82.95;100821.50;5062067;28;20040;-74
2022/01/31 05:42:54;;;;;;;18.83;3.03;;;;;;;5.32;82.97;100817.22;5061824;28;20163;-74
2022/01/31 05:45:19;;;;;;;17.23;2.72;;;;;;;5.30;83.43;100816.28;5060222;28;20021;-73
2022/01/31 05:47:44;;;;;;;18.73;2.65;;;;;;;5.29;83.60;100801.59;5061907;28;20231;-75
2022/01/31 05:50:10;;;;;;;14.38;2.70;;;;;;;5.30;83.24;100797.28;5059819;28;20020;-75
2022/01/31 05:52:35;;;;;;;18.45;2.72;;;;;;;5.28;84.06;100809.25;5061701;28;20020;-75
2022/01/31 05:55:01;;;;;;;14.35;2.88;;;;;;;5.25;85.66;100806.56;5057950;28;20017;-74
2022/01/31 05:57:27;;;;;;;20.90;3.35;;;;;;;5.19;85.56;100812.31;5060269;28;20157;-74
2022/01/31 05:59:52;;;;;;;21.70;3.47;;;;;;;5.15;86.84;100841.41;5059936;28;20036;-75
2022/01/31 06:02:18;;;;;;;15.55;2.80;;;;;;;5.09;87.91;100813.59;5063195;28;20052;-74
2022/01/31 06:04:43;;;;;;;18.77;3.33;;;;;;;5.01;87.96;100852.00;5063289;28;20048;-74
2022/01/31 06:07:09;;;;;;;19.08;3.13;;;;;;;4.93;88.29;100847.28;5062927;28;20048;-74
2022/01/31 06:09:36;;;;;;;21.88;4.13;;;;;;;4.84;88.72;100858.06;5062438;28;20017;-74
2022/01/31 06:12:03;;;;;;;12.55;2.95;;;;;;;4.77;88.76;100853.44;5063522;28;20021;-75
2022/01/31 06:14:29;;;;;;;15.15;2.90;;;;;;;4.70;89.25;100855.72;5063845;28;20260;-75
2022/01/31 06:16:54;;;;;;;14.90;3.22;;;;;;;4.66;89.43;100853.81;5061391;28;20033;-75
2022/01/31 06:19:19;;;;;;;17.75;3.80;;;;;;;4.62;89.67;100854.47;5055842;28;20075;-75
2022/01/31 06:21:45;;;;;;;14.68;4.38;;;;;;;4.58;89.50;100857.72;5060492;28;20314;-75
2022/01/31 06:24:13;;;;;;;19.17;4.03;;;;;;;4.53;89.78;100844.59;5060122;28;20023;-75
2022/01/31 06:26:38;;;;;;;15.63;3.58;;;;;;;4.53;89.95;100844.59;5060186;28;20031;-75
2022/01/31 06:29:03;;;;;;;19.38;3.72;;;;;;;4.54;89.94;100840.31;5060081;28;20033;-75
2022/01/31 06:31:30;;;;;;;13.30;3.38;;;;;;;4.53;90.26;100841.13;5059385;28;20028;-75
2022/01/31 06:33:56;;;;;;;21.40;4.13;;;;;;;4.54;89.58;100842.91;5061503;28;20056;-75
2022/01/31 06:36:24;;;;;;;18.08;3.50;;;;;;;4.55;90.42;100839.50;5054405;28;20195;-75
2022/01/31 06:38:52;;;;;;;21.50;3.65;;;;;;;4.54;89.19;100822.25;5059914;28;20029;-75
2022/01/31 06:41:19;;;;;;;17.70;3.00;;;;;;;4.56;90.38;100836.09;5064384;28;20032;-75
2022/01/31 06:43:45;;;;;;;16.85;3.13;;;;;;;4.58;89.21;100838.78;5060284;28;20031;-75
2022/01/31 06:46:11;;;;;;;14.50;3.10;;;;;;;4.58;89.26;100849.09;5056981;28;20036;-75
2022/01/31 06:48:36;;;;;;;16.85;3.83;;;;;;;4.58;89.56;100851.69;5060903;28;20015;-75
2022/01/31 06:51:01;;;;;;;12.95;2.85;;;;;;;4.55;89.11;100847.25;5062550;28;20290;-75
2022/01/31 06:53:28;;;;;;;21.55;3.42;;;;;;;4.56;88.99;100838.69;5063181;28;20017;-74
2022/01/31 06:55:57;;;;;;;18.27;3.80;;;;;;;4.56;89.91;100851.59;5057341;28;20044;-75
2022/01/31 06:58:23;;;;;;;18.75;3.63;;;;;;;4.55;89.11;100842.09;5055774;28;20100;-74
2022/01/31 07:00:49;;;;;;;24.58;4.15;;;;;;;4.56;88.68;100827.47;5061650;28;20032;-75
2022/01/31 07:03:15;;;;;;;23.20;4.55;;;;;;;4.55;88.53;100848.94;5063209;28;20032;-75
2022/01/31 07:05:41;;;;;;;17.02;3.20;;;;;;;4.53;89.46;100843.69;5059418;28;20063;-75
2022/01/31 07:08:07;;;;;;;18.27;3.28;;;;;;;4.53;88.59;100834.28;5062058;28;20013;-75
2022/01/31 07:10:33;;;;;;;21.55;3.88;;;;;;;4.52;89.33;100849.69;5055721;28;20021;-75
2022/01/31 07:12:59;;;;;;;25.25;5.15;;;;;;;4.52;89.54;100839.38;5064036;28;20028;-75
2022/01/31 07:15:24;;;;;;;17.60;3.83;;;;;;;4.51;89.41;100835.88;5063304;28;20203;-74
2022/01/31 07:17:50;;;;;;;23.48;4.95;;;;;;;4.51;89.17;100833.31;5063913;28;20098;-75
2022/01/31 07:20:23;;;;;;;22.52;3.60;;;;;;;4.51;88.50;100832.44;5068489;28;20031;-75
2022/01/31 07:22:56;;;;;;;27.23;3.80;;;;;;;4.50;88.47;100821.25;5054111;28;20032;-75
2022/01/31 07:25:34;;;;;;;29.70;5.00;;;;;;;4.50;89.61;100816.06;5059577;28;20021;-75
2022/01/31 07:28:01;;;;;;;21.95;3.58;;;;;;;4.51;88.97;100814.38;5057167;28;20256;-75
2022/01/31 07:30:26;;;;;;;26.15;3.88;;;;;;;4.50;89.17;100825.50;5053865;28;20252;-74
2022/01/31 07:32:51;;;;;;;28.25;4.63;;;;;;;4.51;89.44;100824.69;5063689;28;20078;-75
2022/01/31 07:35:16;;;;;;;21.17;3.33;;;;;;;4.50;89.87;100836.72;5055047;28;20032;-67
2022/01/31 07:37:42;;;;;;;22.80;3.65;;;;;;;4.51;89.63;100851.38;5059796;28;20476;-67
2022/01/31 07:40:07;;;;;;;19.67;3.42;;;;;;;4.51;89.81;100858.22;5059597;28;20021;-67
2022/01/31 07:42:33;;;;;;;19.95;3.50;;;;;;;4.51;90.31;100872.00;5055925;28;20009;-67
2022/01/31 07:44:58;;;;;;;21.83;4.15;;;;;;;4.50;89.91;100861.63;5062228;28;20009;-67
2022/01/31 07:47:23;;;;;;;23.90;3.80;;;;;;;4.49;90.45;100865.91;5061287;28;20020;-67
2022/01/31 07:49:51;;;;;;;24.13;3.80;;;;;;;4.48;91.22;100858.09;5060562;28;20719;-67
2022/01/31 07:52:16;;;;;;;30.27;4.22;;;;;;;4.46;90.91;100849.38;5057489;28;20082;-67
2022/01/31 07:54:43;;;;;;;27.33;5.13;;;;;;;4.46;90.99;100857.13;5054338;28;20194;-67
2022/01/31 07:57:09;;;;;;;22.13;3.55;;;;;;;4.44;90.59;100845.84;5059755;28;20025;-67
2022/01/31 07:59:34;;;;;;;18.85;4.10;;;;;;;4.44;90.92;100858.75;5054494;28;20045;-67
2022/01/31 08:01:59;;;;;;;22.38;3.92;;;;;;;4.43;90.95;100854.38;5048375;28;20312;-67
2022/01/31 08:04:24;;;;;;;25.95;4.05;;;;;;;4.44;90.26;100853.59;5051153;28;20035;-67
2022/01/31 08:06:50;;;;;;;23.92;3.30;;;;;;;4.46;89.77;100867.44;5053824;28;20028;-67
2022/01/31 08:09:15;;;;;;;23.35;3.53;;;;;;;4.47;89.96;100851.16;5061044;28;20056;-67
2022/01/31 08:11:40;;;;;;;24.42;3.85;;;;;;;4.47;90.04;100858.88;5052075;28;20047;-67
2022/01/31 08:14:07;;;;;;;19.05;3.20;;;;;;;4.48;90.10;100853.81;5048406;28;20017;-67
2022/01/31 08:16:34;;;;;;;23.25;3.60;;;;;;;4.48;90.00;100851.22;5056520;28;20016;-67
2022/01/31 08:18:59;;;;;;;35.10;4.43;;;;;;;4.49;89.89;100852.09;5055285;28;20028;-67
2022/01/31 08:21:24;;;;;;;22.40;3.45;;;;;;;4.51;89.35;100853.06;5056595;28;20012;-67
2022/01/31 08:23:50;;;;;;;26.35;3.70;;;;;;;4.52;90.29;100875.50;5052125;28;20063;-67
2022/01/31 08:26:17;;;;;;;23.10;3.15;;;;;;;4.52;90.06;100862.59;5063023;28;20033;-67
2022/01/31 08:28:55;;;;;;;26.85;3.72;;;;;;;4.49;90.39;100876.22;5047778;28;20132;-67
2022/01/31 08:36:16;;;;;;;25.45;3.38;;;;;;;4.48;90.60;100878.72;5057322;28;20076;-67
2022/01/31 08:38:43;;;;;;;25.10;4.18;;;;;;;4.48;90.60;100869.28;5062968;28;20016;-67
2022/01/31 08:41:10;;;;;;;23.33;3.47;;;;;;;4.49;90.97;100885.63;5057302;28;20059;-66
2022/01/31 08:43:37;;;;;;;33.65;4.88;;;;;;;4.49;90.57;100880.47;5060875;28;20303;-67
2022/01/31 08:46:05;;;;;;;21.25;4.18;;;;;;;4.49;91.04;100876.22;5052265;28;20272;-67
2022/01/31 08:48:30;;;;;;;29.02;3.40;;;;;;;4.50;90.79;100888.31;5063610;28;20036;-67
2022/01/31 08:50:56;;;;;;;29.73;4.22;;;;;;;4.50;90.91;100878.00;5055265;28;20020;-67
2022/01/31 08:53:22;;;;;;;29.63;3.53;;;;;;;4.52;90.25;100876.38;5056648;28;20267;-67
2022/01/31 08:55:50;;;;;;;33.00;5.03;;;;;;;4.55;90.87;100874.72;5051406;28;20080;-67
2022/01/31 08:58:16;;;;;;;28.88;3.80;;;;;;;4.55;90.99;100890.22;5055860;28;20033;-67
2022/01/31 09:00:43;;;;;;;27.00;4.15;;;;;;;4.55;90.69;100906.59;5053462;28;20204;-67
2022/01/31 09:05:36;;;;;;;36.55;4.28;;;;;;;4.56;91.12;100912.63;5057097;28;20033;-67
2022/01/31 09:08:01;;;;;;;27.27;4.53;;;;;;;4.55;91.63;100885.06;5057730;28;20059;-67
2022/01/31 09:10:26;;;;;;;26.85;3.67;;;;;;;4.52;91.60;100902.16;5058374;28;20275;-67
2022/01/31 09:12:52;;;;;;;27.65;3.58;;;;;;;4.50;92.33;100923.53;5054723;28;20087;-67
2022/01/31 09:15:17;;;;;;;25.70;3.03;;;;;;;4.47;91.96;100923.38;5062549;28;20040;-67
2022/01/31 09:17:42;;;;;;;27.85;3.95;;;;;;;4.47;92.11;100890.72;5060556;28;20036;-67
2022/01/31 09:20:09;;;;;;;28.45;3.20;;;;;;;4.47;91.93;100895.00;5069471;28;20025;-67
2022/01/31 09:22:34;;;;;;;29.15;3.40;;;;;;;4.48;92.26;100904.53;5052494;28;20024;-67
2022/01/31 09:25:00;;;;;;;20.42;3.30;;;;;;;4.48;91.57;100894.22;5054170;28;20014;-67
2022/01/31 09:27:26;;;;;;;24.33;3.40;;;;;;;4.50;92.47;100913.22;5061488;28;20096;-67
2022/01/31 09:29:52;;;;;;;26.42;3.70;;;;;;;4.50;91.60;100888.31;5057123;28;20020;-67
2022/01/31 09:32:22;;;;;;;28.55;3.97;;;;;;;4.51;91.98;100917.56;5050084;28;20051;-67
2022/01/31 09:34:47;;;;;;;23.77;4.20;;;;;;;4.50;91.84;100901.22;5065168;28;20017;-67
2022/01/31 09:37:13;;;;;;;30.70;4.20;;;;;;;4.52;91.40;100894.44;5067108;28;20021;-67
2022/01/31 09:39:38;;;;;;;28.80;4.03;;;;;;;4.53;91.57;100893.63;5063708;28;20028;-67
2022/01/31 09:42:11;;;;;;;24.52;3.60;;;;;;;4.55;91.73;100923.75;5061167;28;20181;-67
2022/01/31 09:50:20;;;;;;;27.98;3.67;;;;;;;4.59;91.12;100957.56;5064386;28;19943;-67
2022/01/31 09:52:45;;;;;;;28.27;3.45;;;;;;;4.58;91.14;100948.03;5054794;28;20196;-67
2022/01/31 09:55:11;;;;;;;28.13;4.20;;;;;;;4.56;91.44;100957.38;5054809;28;20032;-67
2022/01/31 09:57:36;;;;;;;23.58;3.47;;;;;;;4.54;91.06;100928.03;5059915;28;20017;-67
2022/01/31 10:00:04;;;;;;;41.08;4.75;;;;;;;4.52;91.57;100971.84;5064770;28;20087;-67
2022/01/31 10:02:29;;;;;;;28.33;4.65;;;;;;;4.49;91.91;100974.28;5056167;28;20040;-67
2022/01/31 10:04:54;;;;;;;26.88;4.38;;;;;;;4.48;92.10;100969.91;5061549;28;20021;-67
2022/01/31 10:07:21;;;;;;;36.13;4.60;;;;;;;4.48;91.59;100989.69;5058994;28;20025;-67
2022/01/31 10:09:48;;;;;;;31.25;6.60;;;;;;;4.45;92.19;100987.81;5065000;28;20021;-67
2022/01/31 10:18:02;;;;;;;42.17;5.68;;;;;;;4.46;91.78;100983.53;5064808;28;20248;-67
2022/01/31 10:20:30;;;;;;;37.88;5.47;;;;;;;4.46;92.08;100981.84;5054783;28;20076;-67
2022/01/31 10:23:05;;;;;;;42.10;5.18;;;;;;;4.48;91.91;100993.13;5062547;28;20020;-67
2022/01/31 10:25:32;;;;;;;40.60;5.65;;;;;;;4.51;91.43;101002.72;5063254;28;20032;-67
2022/01/31 10:27:58;;;;;;;40.92;6.00;;;;;;;4.53;90.98;101008.84;5063923;28;20032;-67
2022/01/31 10:30:27;;;;;;;39.67;5.45;;;;;;;4.54;91.29;101031.25;5065413;28;20025;-67
2022/01/31 10:32:55;;;;;;;39.00;4.78;;;;;;;4.56;90.34;101029.63;5054874;28;20021;-67
2022/01/31 10:35:23;;;;;;;44.42;6.20;;;;;;;4.57;90.75;101022.81;5058545;28;20067;-67
2022/01/31 10:37:55;;;;;;;36.88;6.43;;;;;;;4.59;89.87;101044.41;5063571;28;20183;-67
2022/01/31 10:46:10;;;;;;;39.85;6.55;;;;;;;4.62;88.40;101048.03;5060895;28;20285;-67
2022/01/31 10:54:07;;;;;;;37.97;5.93;;;;;;;4.65;87.71;101036.94;5061429;28;20048;-67
2022/01/31 10:56:35;;;;;;;35.30;5.70;;;;;;;4.67;87.60;101038.81;5055070;28;20021;-67
2022/01/31 10:59:04;;;;;;;36.30;5.38;;;;;;;4.68;87.13;101031.97;5062527;28;20021;-67
2022/01/31 11:01:29;;;;;;;34.25;5.15;;;;;;;4.69;87.64;101044.03;5056105;28;20025;-66
2022/01/31 11:03:57;;;;;;;35.00;4.60;;;;;;;4.70;87.68;101062.19;5048781;28;20036;-67
2022/01/31 11:06:23;;;;;;;29.15;5.32;;;;;;;4.69;87.75;101044.97;5064808;28;20086;-67
2022/01/31 11:08:50;;;;;;;41.15;6.97;;;;;;;4.70;88.35;101056.16;5060290;28;20017;-67
2022/01/31 11:11:16;;;;;;;45.63;5.60;;;;;;;4.68;88.14;101040.59;5064858;28;20013;-67
2022/01/31 11:13:41;;;;;;;42.58;5.40;;;;;;;4.67;88.58;101041.41;5053873;28;20219;-67
2022/01/31 11:16:08;;;;;;;45.67;6.15;;;;;;;4.67;88.48;101058.59;5055899;28;20094;-67
2022/01/31 11:18:35;;;;;;;31.02;5.10;;;;;;;4.66;88.68;101070.63;5078504;28;20028;-67
2022/01/31 11:21:06;;;;;;;43.25;6.15;;;;;;;4.67;89.07;101079.22;5051350;28;20032;-67
2022/01/31 11:23:37;;;;;;;38.40;5.70;;;;;;;4.67;88.94;101089.56;5065013;28;20184;-67
2022/01/31 11:26:06;;;;;;;36.80;5.38;;;;;;;4.66;89.81;101085.19;5054783;28;20028;-67
2022/01/31 11:28:34;;;;;;;39.88;5.47;;;;;;;4.65;90.08;101081.75;5048685;28;20029;-67
2022/01/31 11:31:01;;;;;;;35.00;5.38;;;;;;;4.64;90.09;101079.97;5057157;28;20031;-67
2022/01/31 11:33:27;;;;;;;34.17;5.68;;;;;;;4.64;89.50;101087.69;5059567;28;20035;-67
2022/01/31 11:35:53;;;;;;;44.25;5.68;;;;;;;4.65;88.87;101094.63;5055713;28;20084;-67
2022/01/31 11:38:19;;;;;;;32.13;4.63;;;;;;;4.65;89.62;101101.47;5058909;28;20063;-67
2022/01/31 11:40:46;;;;;;;43.47;5.82;;;;;;;4.64;90.11;101082.53;5056555;28;20032;-67
2022/01/31 11:43:14;;;;;;;43.67;5.03;;;;;;;4.63;90.25;101096.25;5061302;28;20263;-67
2022/01/31 11:45:41;;;;;;;44.13;5.22;;;;;;;4.62;90.33;101089.31;5067085;28;20043;-67
2022/01/31 11:48:12;;;;;;;33.25;5.25;;;;;;;4.60;90.32;101080.59;5064422;28;20272;-78
2022/01/31 11:50:43;;;;;;;50.97;6.25;;;;;;;4.60;90.49;101097.78;5056587;28;20028;-79
2022/01/31 11:53:09;;;;;;;41.65;5.60;;;;;;;4.60;91.14;101090.91;5056356;28;20013;-79